Time;durP1;ratioP1;P1;durP2;ratioP2;P2;SDS_P1;SDS_P2;PMS_P1;PMS_P2;Temp;Humidity;BMP_temperature;BMP_pressure;BME280_temperature;BME280_humidity;BME280_pressure;Samples;Min_cycle;Max_cycle;Signal;HPM_P1;HPM_P2
2021/01/13 00:02:22;;;;;;;0.45;0.43;;;9.30;99.90;;;;;;6209595;23;20461;-87
2021/01/13 00:04:47;;;;;;;0.10;0.10;;;9.30;99.90;;;;;;6208239;23;20070;-87
2021/01/13 00:07:14;;;;;;;0.10;0.10;;;9.30;99.90;;;;;;6210080;23;20730;-87
2021/01/13 00:09:40;;;;;;;0.03;0.03;;;9.30;99.90;;;;;;6208337;23;20008;-88
2021/01/13 00:12:06;;;;;;;0.10;0.10;;;9.10;99.90;;;;;;6208717;23;20091;-88
2021/01/13 00:14:32;;;;;;;0.30;0.30;;;9.00;99.90;;;;;;6208152;23;20450;-88
2021/01/13 00:16:58;;;;;;;0.10;0.10;;;9.00;99.90;;;;;;6210158;23;20008;-88
2021/01/13 00:19:24;;;;;;;0.15;0.15;;;9.00;99.90;;;;;;6208593;23;20764;-87
2021/01/13 00:21:54;;;;;;;0.20;0.20;;;9.00;99.90;;;;;;6208296;23;20008;-86
2021/01/13 00:24:21;;;;;;;0.30;0.30;;;9.00;99.90;;;;;;6210471;23;20031;-86
2021/01/13 00:26:47;;;;;;;0.10;0.10;;;9.00;99.90;;;;;;6210114;23;20004;-88
2021/01/13 00:29:16;;;;;;;0.55;0.55;;;9.00;99.90;;;;;;6208314;23;20350;-88
2021/01/13 00:31:42;;;;;;;0.10;0.10;;;9.00;99.90;;;;;;6210346;23;20011;-87
2021/01/13 00:34:09;;;;;;;0.22;0.22;;;9.00;99.90;;;;;;6210361;23;20430;-88
2021/01/13 00:36:35;;;;;;;0.10;0.10;;;9.00;99.90;;;;;;6210151;23;20012;-88
2021/01/13 00:39:01;;;;;;;0.13;0.13;;;9.00;99.90;;;;;;6210426;23;20035;-86
2021/01/13 00:41:27;;;;;;;0.15;0.15;;;9.00;99.90;;;;;;6208098;23;20008;-85
2021/01/13 00:43:55;;;;;;;0.10;0.10;;;9.00;99.90;;;;;;6207668;23;20072;-86
2021/01/13 00:46:21;;;;;;;0.10;0.10;;;9.00;99.90;;;;;;6208329;23;20032;-85
2021/01/13 00:48:47;;;;;;;0.10;0.10;;;9.00;99.90;;;;;;6208529;23;20004;-85
2021/01/13 00:51:13;;;;;;;0.85;0.85;;;9.10;99.90;;;;;;6208836;23;20342;-87
2021/01/13 00:53:39;;;;;;;0.10;0.10;;;9.10;99.90;;;;;;6207860;23;20008;-87
2021/01/13 00:56:05;;;;;;;0.10;0.10;;;9.10;99.90;;;;;;6210223;23;20024;-87
2021/01/13 00:58:32;;;;;;;0.00;0.00;;;9.10;99.90;;;;;;6209490;23;20004;-86
2021/01/13 01:00:58;;;;;;;0.32;0.32;;;9.10;99.90;;;;;;6209290;23;20095;-87
2021/01/13 01:03:24;;;;;;;0.85;0.85;;;9.10;99.90;;;;;;6207940;23;20028;-87
2021/01/13 01:05:51;;;;;;;0.23;0.23;;;9.10;99.90;;;;;;6209195;23;20001;-88
2021/01/13 01:08:18;;;;;;;0.25;0.25;;;9.10;99.90;;;;;;6207156;23;20228;-88
2021/01/13 01:10:52;;;;;;;0.20;0.20;;;9.10;99.90;;;;;;6209279;23;20000;-88
2021/01/13 01:13:18;;;;;;;0.25;0.25;;;9.10;99.90;;;;;;6208326;23;20036;-87
2021/01/13 01:15:44;;;;;;;0.30;0.30;;;9.10;99.90;;;;;;6209478;23;20023;-87
2021/01/13 01:18:09;;;;;;;0.10;0.10;;;9.10;99.90;;;;;;6207337;23;20121;-86
2021/01/13 01:20:35;;;;;;;0.10;0.10;;;9.10;99.90;;;;;;6208798;23;20009;-87
2021/01/13 01:23:02;;;;;;;0.68;0.68;;;9.10;99.90;;;;;;6207959;23;20004;-87
2021/01/13 01:25:29;;;;;;;1.88;1.75;;;9.10;99.90;;;;;;6209280;23;20043;-88
2021/01/13 01:27:57;;;;;;;0.35;0.35;;;9.10;99.90;;;;;;6208934;23;20043;-88
2021/01/13 01:30:24;;;;;;;0.10;0.10;;;9.10;99.90;;;;;;6207381;23;20013;-88
2021/01/13 01:32:50;;;;;;;;;;;9.10;99.90;;;;;;6208452;23;20013;-86
2021/01/13 01:35:16;;;;;;;6.03;3.10;;;9.10;99.90;;;;;;6207175;23;19900;-86
2021/01/13 01:37:43;;;;;;;0.20;0.20;;;9.20;99.90;;;;;;6208178;23;20008;-87
2021/01/13 01:40:13;;;;;;;0.10;0.10;;;9.20;99.90;;;;;;6209766;23;20000;-87
2021/01/13 01:42:55;;;;;;;1.20;1.15;;;9.20;99.90;;;;;;6207282;23;20347;-87
2021/01/13 01:45:23;;;;;;;0.45;0.45;;;9.10;99.90;;;;;;6208995;23;20001;-87
2021/01/13 01:48:01;;;;;;;0.50;0.50;;;9.20;99.90;;;;;;6208040;23;20009;-86
2021/01/13 01:50:35;;;;;;;2.92;2.72;;;9.10;99.90;;;;;;6209660;23;20004;-88
2021/01/13 01:53:31;;;;;;;0.15;0.15;;;9.10;99.90;;;;;;6208984;23;20013;-88
2021/01/13 01:56:01;;;;;;;;;;;9.20;99.90;;;;;;6208510;23;20008;-87
2021/01/13 01:58:31;;;;;;;0.00;0.00;;;9.20;99.90;;;;;;6209890;23;19906;-86
2021/01/13 02:00:58;;;;;;;0.40;0.40;;;9.30;99.90;;;;;;6208725;23;20008;-87
2021/01/13 02:03:28;;;;;;;0.80;0.80;;;9.30;99.90;;;;;;6208730;23;20086;-86
2021/01/13 02:06:00;;;;;;;0.32;0.32;;;9.30;99.90;;;;;;6209849;23;20342;-86
2021/01/13 02:08:26;;;;;;;1.65;0.95;;;9.30;99.90;;;;;;6209171;23;20075;-86
2021/01/13 02:10:52;;;;;;;27.33;8.05;;;9.20;99.90;;;;;;6182383;23;20039;-86
2021/01/13 02:13:19;;;;;;;3.93;1.77;;;9.30;99.90;;;;;;6208300;23;20016;-86
2021/01/13 02:15:47;;;;;;;2.20;1.40;;;9.30;99.90;;;;;;6182112;23;20055;-86
2021/01/13 02:18:16;;;;;;;22.35;4.88;;;9.30;99.90;;;;;;6182561;23;20419;-86
2021/01/13 02:20:46;;;;;;;1.88;1.30;;;9.30;99.90;;;;;;6210969;23;20007;-89
2021/01/13 02:23:29;;;;;;;0.63;0.63;;;9.40;99.90;;;;;;6211327;23;20443;-89
2021/01/13 02:26:33;;;;;;;2.25;1.45;;;9.40;99.90;;;;;;6184339;23;20618;-90
2021/01/13 02:29:08;;;;;;;0.00;0.00;;;9.50;99.90;;;;;;6184188;23;20982;-89
2021/01/13 02:31:43;;;;;;;20.38;3.20;;;9.50;99.90;;;;;;6210112;23;20084;-89
2021/01/13 02:34:45;;;;;;;0.10;0.10;;;9.50;99.90;;;;;;6184203;23;20047;-88
2021/01/13 02:37:49;;;;;;;0.20;0.20;;;9.50;99.90;;;;;;6179820;23;20492;-88
2021/01/13 02:40:17;;;;;;;0.57;0.57;;;9.50;99.90;;;;;;6089245;23;20960;-88
2021/01/13 02:43:07;;;;;;;0.03;0.03;;;9.50;99.90;;;;;;6065307;23;20479;-87
2021/01/13 02:45:47;;;;;;;1.08;1.00;;;9.50;99.90;;;;;;6089538;23;20436;-87
2021/01/13 02:48:24;;;;;;;0.10;0.10;;;9.50;99.90;;;;;;6089363;23;20041;-87
2021/01/13 02:50:58;;;;;;;15.85;3.22;;;9.50;99.90;;;;;;6089772;23;20018;-88
2021/01/13 02:53:30;;;;;;;18.80;4.47;;;9.50;99.90;;;;;;6089646;23;20045;-88
2021/01/13 02:55:55;;;;;;;3.05;2.75;;;9.50;99.90;;;;;;6065242;23;20026;-89
2021/01/13 02:58:33;;;;;;;21.70;4.28;;;9.60;99.90;;;;;;6089211;23;20496;-89
2021/01/13 03:01:00;;;;;;;32.60;1.85;;;9.50;99.90;;;;;;6064128;23;20040;-88
2021/01/13 03:03:30;;;;;;;0.20;0.20;;;9.60;99.90;;;;;;6064833;23;20018;-87
2021/01/13 03:06:06;;;;;;;6.32;3.30;;;9.60;99.90;;;;;;6064893;23;20089;-87
2021/01/13 03:08:45;;;;;;;24.38;5.60;;;9.70;99.90;;;;;;6065109;23;20682;-87
2021/01/13 03:11:20;;;;;;;2.42;1.42;;;9.70;99.90;;;;;;6133323;23;20009;-86
2021/01/13 03:13:46;;;;;;;47.05;7.85;;;9.70;99.90;;;;;;6210263;23;20019;-87
2021/01/13 03:16:14;;;;;;;1.52;1.13;;;9.70;99.90;;;;;;6183875;23;20005;-87
2021/01/13 03:18:56;;;;;;;3.00;2.13;;;9.70;99.90;;;;;;6184192;23;20013;-87
2021/01/13 03:21:27;;;;;;;2.20;1.65;;;9.80;99.90;;;;;;6183591;23;20004;-87
2021/01/13 03:24:35;;;;;;;24.40;6.20;;;9.80;99.90;;;;;;6183402;23;20004;-88
2021/01/13 03:27:01;;;;;;;0.10;0.10;;;9.80;99.90;;;;;;6064795;23;20006;-88
2021/01/13 03:29:30;;;;;;;19.15;6.10;;;9.80;99.90;;;;;;6088876;23;20014;-89
2021/01/13 03:32:12;;;;;;;10.77;5.35;;;9.80;99.90;;;;;;6064072;23;20495;-87
2021/01/13 03:34:58;;;;;;;10.07;4.07;;;9.80;99.90;;;;;;6064595;23;20069;-88
2021/01/13 03:37:25;;;;;;;0.47;0.47;;;9.80;99.90;;;;;;6089223;23;20114;-87
2021/01/13 03:39:51;;;;;;;;;;;9.90;99.90;;;;;;6065394;23;20169;-87
2021/01/13 03:42:19;;;;;;;2.95;2.40;;;9.80;99.90;;;;;;6088671;23;20332;-88
2021/01/13 03:44:47;;;;;;;15.30;3.78;;;9.80;99.90;;;;;;6089094;23;20011;-87
2021/01/13 03:47:15;;;;;;;34.20;6.50;;;9.80;99.90;;;;;;6088081;23;20084;-88
2021/01/13 03:49:48;;;;;;;10.23;3.70;;;9.80;99.90;;;;;;6088909;23;20029;-88
2021/01/13 03:52:14;;;;;;;0.20;0.20;;;9.80;99.90;;;;;;6088638;23;20014;-88
2021/01/13 03:54:43;;;;;;;7.18;2.08;;;9.70;99.90;;;;;;6064803;23;20018;-88
2021/01/13 03:57:09;;;;;;;2.33;1.27;;;9.80;99.90;;;;;;6089021;23;20066;-87
2021/01/13 03:59:52;;;;;;;0.10;0.10;;;9.80;99.90;;;;;;6088750;23;20039;-86
2021/01/13 04:02:24;;;;;;;0.00;0.00;;;9.80;99.90;;;;;;6209982;23;20079;-87
2021/01/13 04:04:58;;;;;;;0.10;0.10;;;9.80;99.90;;;;;;6208591;23;20047;-88
2021/01/13 04:07:26;;;;;;;13.48;1.60;;;9.80;99.90;;;;;;6209999;23;20000;-88
2021/01/13 04:09:55;;;;;;;0.10;0.10;;;9.80;99.90;;;;;;6208315;23;20000;-89
2021/01/13 04:12:29;;;;;;;13.52;3.20;;;9.80;99.90;;;;;;6209606;23;20032;-88
2021/01/13 04:14:56;;;;;;;15.65;3.83;;;9.80;99.90;;;;;;6208181;23;20526;-88
2021/01/13 04:17:24;;;;;;;34.13;8.20;;;9.80;99.90;;;;;;6208409;23;20005;-88
2021/01/13 04:19:50;;;;;;;1.60;1.35;;;9.80;99.90;;;;;;6209854;23;20008;-87
2021/01/13 04:22:18;;;;;;;36.13;6.33;;;9.80;99.90;;;;;;6210230;23;20008;-87
2021/01/13 04:24:47;;;;;;;3.97;1.67;;;9.80;99.90;;;;;;6208810;23;20235;-84
2021/01/13 04:27:15;;;;;;;18.65;3.90;;;9.80;99.90;;;;;;6208471;23;20080;-87
2021/01/13 04:29:42;;;;;;;13.35;4.18;;;9.80;99.90;;;;;;6210600;23;20007;-88
2021/01/13 04:32:09;;;;;;;0.15;0.15;;;9.70;99.90;;;;;;6208493;23;20004;-88
2021/01/13 04:34:35;;;;;;;;;;;9.70;99.90;;;;;;6210861;23;20004;-88
2021/01/13 04:37:04;;;;;;;10.13;3.13;;;9.70;99.90;;;;;;6209895;23;19907;-87
2021/01/13 04:39:30;;;;;;;4.28;1.95;;;9.80;99.90;;;;;;6209925;23;20083;-87
2021/01/13 04:42:03;;;;;;;0.30;0.30;;;9.80;99.90;;;;;;6210363;23;20347;-86
2021/01/13 04:45:03;;;;;;;5.75;2.10;;;9.70;99.90;;;;;;6207849;23;20001;-87
2021/01/13 04:47:48;;;;;;;27.75;5.50;;;9.70;99.90;;;;;;6208076;23;20009;-87
2021/01/13 04:50:17;;;;;;;4.00;1.75;;;9.70;99.90;;;;;;6209847;23;20007;-87
2021/01/13 04:52:44;;;;;;;29.13;3.72;;;9.80;99.90;;;;;;6208352;23;20001;-87
2021/01/13 04:55:25;;;;;;;23.05;2.70;;;9.80;99.90;;;;;;6208766;23;20008;-87
2021/01/13 04:58:09;;;;;;;18.38;4.88;;;9.80;99.90;;;;;;6210473;23;20004;-87
2021/01/13 05:01:06;;;;;;;2.30;1.83;;;9.80;99.90;;;;;;6208438;23;20008;-87
2021/01/13 05:03:42;;;;;;;7.13;3.00;;;9.80;99.90;;;;;;6212742;23;20082;-87
2021/01/13 05:06:26;;;;;;;0.10;0.10;;;9.70;99.90;;;;;;6213582;23;20341;-87
2021/01/13 05:09:05;;;;;;;0.10;0.10;;;9.80;99.90;;;;;;6240400;23;20007;-86
2021/01/13 05:12:05;;;;;;;0.10;0.10;;;9.70;99.90;;;;;;6212516;23;20004;-89
2021/01/13 05:14:40;;;;;;;8.25;3.05;;;9.70;99.90;;;;;;6213194;23;20061;-88
2021/01/13 05:17:34;;;;;;;0.00;0.00;;;9.70;99.90;;;;;;6240095;23;20012;-89
2021/01/13 05:20:09;;;;;;;0.10;0.10;;;9.80;99.90;;;;;;6219818;23;20008;-88
2021/01/13 05:22:35;;;;;;;0.32;0.32;;;9.70;99.90;;;;;;6240275;23;20016;-88
2021/01/13 05:25:06;;;;;;;9.32;1.17;;;9.70;99.90;;;;;;6212896;23;20054;-88
2021/01/13 05:27:46;;;;;;;30.55;5.35;;;9.80;99.90;;;;;;6239863;23;20004;-88
2021/01/13 05:30:13;;;;;;;4.60;2.13;;;9.80;99.90;;;;;;6213355;23;20011;-88
2021/01/13 05:32:40;;;;;;;9.05;3.95;;;9.80;99.90;;;;;;6239367;22;20081;-88
2021/01/13 05:35:07;;;;;;;0.10;0.10;;;9.70;99.90;;;;;;6239922;23;20001;-88
2021/01/13 05:37:53;;;;;;;0.10;0.10;;;9.80;99.90;;;;;;6240214;23;20029;-88
2021/01/13 05:40:20;;;;;;;0.10;0.10;;;9.80;99.90;;;;;;6239826;23;20035;-90
2021/01/13 05:42:46;;;;;;;0.00;0.00;;;9.90;99.90;;;;;;6212985;23;20015;-90
2021/01/13 05:45:13;;;;;;;0.10;0.10;;;9.80;99.90;;;;;;6239862;23;20039;-89
2021/01/13 05:47:45;;;;;;;0.00;0.00;;;9.80;99.90;;;;;;6238561;23;20015;-89
2021/01/13 05:50:12;;;;;;;0.10;0.10;;;9.90;99.90;;;;;;6240661;23;20004;-91
2021/01/13 05:52:42;;;;;;;0.10;0.10;;;9.80;99.90;;;;;;6239077;23;20004;-89
2021/01/13 05:55:08;;;;;;;0.15;0.15;;;9.90;99.90;;;;;;6238534;23;20465;-90
2021/01/13 05:57:36;;;;;;;0.05;0.05;;;9.90;99.90;;;;;;6240258;23;20003;-92
2021/01/13 06:00:04;;;;;;;0.03;0.03;;;9.90;99.90;;;;;;6239543;23;20000;-89
2021/01/13 06:02:40;;;;;;;0.13;0.13;;;9.80;99.90;;;;;;6211038;23;20046;-90
2021/01/13 06:05:08;;;;;;;0.15;0.15;;;9.80;99.90;;;;;;6183002;23;20009;-91
2021/01/13 06:07:34;;;;;;;0.00;0.00;;;9.80;99.90;;;;;;6182449;23;20477;-91
2021/01/13 06:10:01;;;;;;;0.00;0.00;;;9.80;99.90;;;;;;6183310;23;20004;-91
2021/01/13 06:12:28;;;;;;;;;;;9.80;99.90;;;;;;6210075;23;20004;-89
2021/01/13 06:14:55;;;;;;;0.10;0.10;;;9.90;99.90;;;;;;6210332;23;19904;-92
2021/01/13 06:17:25;;;;;;;0.05;0.05;;;9.80;99.90;;;;;;6184339;23;20351;-92
2021/01/13 06:19:55;;;;;;;0.00;0.00;;;9.80;99.90;;;;;;6184054;23;20005;-91
2021/01/13 06:22:29;;;;;;;0.10;0.10;;;9.80;99.90;;;;;;6184258;23;20009;-91
2021/01/13 06:25:04;;;;;;;5.35;1.77;;;9.80;99.90;;;;;;6184729;23;20009;-93
2021/01/13 06:27:49;;;;;;;0.00;0.00;;;9.80;99.90;;;;;;6183588;23;20005;-92
2021/01/13 06:30:21;;;;;;;0.28;0.28;;;9.80;99.90;;;;;;6183451;23;20004;-91
2021/01/13 06:33:01;;;;;;;0.10;0.10;;;9.80;99.90;;;;;;6183620;23;20446;-92
2021/01/13 06:35:42;;;;;;;0.10;0.10;;;9.80;99.90;;;;;;6186242;23;20039;-93
2021/01/13 06:38:28;;;;;;;0.00;0.00;;;9.80;99.90;;;;;;6183734;23;20418;-89
2021/01/13 06:40:58;;;;;;;0.10;0.10;;;9.70;99.90;;;;;;6211256;23;20296;-94
2021/01/13 06:43:25;;;;;;;0.10;0.10;;;9.80;99.90;;;;;;6185745;23;20020;-92
2021/01/13 06:45:50;;;;;;;0.28;0.28;;;9.80;99.90;;;;;;6184921;23;20008;-91
2021/01/13 06:48:25;;;;;;;0.10;0.10;;;9.80;99.90;;;;;;6212745;23;20001;-96
2021/01/13 06:50:58;;;;;;;0.08;0.08;;;9.80;99.90;;;;;;6188188;23;20449;-96
2021/01/13 06:53:34;;;;;;;0.00;0.00;;;9.80;99.90;;;;;;6190202;23;20075;-94
2021/01/13 06:56:19;;;;;;;0.30;0.20;;;9.80;99.90;;;;;;6188424;23;20004;-93
2021/01/13 06:59:00;;;;;;;0.20;0.20;;;9.80;99.90;;;;;;6209959;23;20009;-89
2021/01/13 07:01:26;;;;;;;0.22;0.22;;;9.80;99.90;;;;;;6182644;23;20043;-91
2021/01/13 07:04:05;;;;;;;0.20;0.20;;;9.80;99.90;;;;;;6196347;23;20013;-92
2021/01/13 07:06:34;;;;;;;0.35;0.35;;;9.80;99.90;;;;;;6208633;23;20012;-90
2021/01/13 07:09:01;;;;;;;0.65;0.65;;;9.80;99.90;;;;;;6209696;23;20095;-90
2021/01/13 07:11:29;;;;;;;0.85;0.85;;;9.80;99.90;;;;;;6209919;23;20005;-89
2021/01/13 07:14:01;;;;;;;0.10;0.10;;;9.80;99.90;;;;;;6211335;23;20036;-89
2021/01/13 07:16:29;;;;;;;14.38;2.58;;;9.80;99.90;;;;;;6211385;23;20004;-89
2021/01/13 07:18:56;;;;;;;0.13;0.13;;;9.70;99.90;;;;;;6209471;23;20012;-89
2021/01/13 07:21:38;;;;;;;0.10;0.10;;;9.70;99.90;;;;;;6210492;23;20008;-89
2021/01/13 07:24:11;;;;;;;0.40;0.40;;;9.70;99.90;;;;;;6209596;23;20061;-89
2021/01/13 07:26:42;;;;;;;0.20;0.20;;;9.70;99.90;;;;;;6209227;23;20008;-89
2021/01/13 07:29:08;;;;;;;0.10;0.10;;;9.70;99.90;;;;;;6210744;23;20485;-89
2021/01/13 07:31:35;;;;;;;0.10;0.10;;;9.70;99.90;;;;;;6208770;23;20083;-90
2021/01/13 07:34:32;;;;;;;0.10;0.10;;;9.70;99.90;;;;;;6208748;23;20059;-89
2021/01/13 07:37:13;;;;;;;0.00;0.00;;;9.70;99.90;;;;;;6179012;23;20350;-88
2021/01/13 07:40:09;;;;;;;0.00;0.00;;;9.70;99.90;;;;;;6210999;23;20009;-89
2021/01/13 07:42:37;;;;;;;0.10;0.10;;;9.70;99.90;;;;;;6210868;23;20013;-89
2021/01/13 07:45:10;;;;;;;0.25;0.25;;;9.80;99.90;;;;;;6208931;23;20055;-88
2021/01/13 07:47:45;;;;;;;0.10;0.10;;;9.80;99.90;;;;;;6208882;23;20001;-89
2021/01/13 07:50:13;;;;;;;52.47;9.73;;;9.80;99.90;;;;;;6210440;23;20039;-89
2021/01/13 07:52:43;;;;;;;4.35;3.97;;;9.80;99.90;;;;;;6210346;23;20000;-88
2021/01/13 07:55:20;;;;;;;15.70;4.60;;;9.80;99.90;;;;;;6210324;23;20001;-89
2021/01/13 07:57:51;;;;;;;2.72;2.10;;;9.90;99.90;;;;;;6209184;23;20091;-89
2021/01/13 08:00:36;;;;;;;0.20;0.20;;;9.80;99.90;;;;;;6208332;23;20030;-87
2021/01/13 08:03:53;;;;;;;0.73;0.73;;;9.90;99.90;;;;;;6210094;23;20016;-89
2021/01/13 08:06:32;;;;;;;1.27;0.40;;;9.80;99.90;;;;;;6183337;23;20052;-89
2021/01/13 08:09:12;;;;;;;11.90;2.75;;;9.80;99.90;;;;;;6210090;23;20400;-89
2021/01/13 08:12:05;;;;;;;0.15;0.15;;;9.80;99.90;;;;;;6184033;23;20004;-89
2021/01/13 08:14:52;;;;;;;0.00;0.00;;;9.80;99.90;;;;;;6210246;23;20005;-89
2021/01/13 08:17:54;;;;;;;1.27;1.17;;;9.80;99.90;;;;;;6183639;23;20230;-89
2021/01/13 08:20:56;;;;;;;4.25;2.58;;;9.80;99.90;;;;;;6183777;23;20009;-90
2021/01/13 08:23:32;;;;;;;0.50;0.50;;;9.90;99.90;;;;;;6210435;23;20064;-89
2021/01/13 08:26:03;;;;;;;1.57;1.17;;;9.90;99.90;;;;;;6210407;23;20001;-89
2021/01/13 08:28:42;;;;;;;29.33;4.75;;;9.90;99.90;;;;;;6183384;23;20001;-89
2021/01/13 08:31:08;;;;;;;0.17;0.17;;;9.90;99.90;;;;;;6210583;23;20028;-89
2021/01/13 08:33:36;;;;;;;0.70;0.65;;;9.90;99.90;;;;;;6183723;23;20047;-89
2021/01/13 08:36:13;;;;;;;6.70;2.78;;;9.90;99.90;;;;;;6210291;23;20011;-89
2021/01/13 08:39:06;;;;;;;28.42;6.55;;;9.80;99.90;;;;;;6183382;23;20087;-91
2021/01/13 08:41:33;;;;;;;0.93;0.85;;;9.80;99.90;;;;;;6183493;23;20354;-90
2021/01/13 08:44:16;;;;;;;0.63;0.63;;;9.80;99.90;;;;;;6183831;23;20736;-90
2021/01/13 08:46:59;;;;;;;0.00;0.00;;;9.80;99.90;;;;;;6183521;23;20005;-89
2021/01/13 08:49:27;;;;;;;0.20;0.20;;;9.80;99.90;;;;;;6184123;23;20008;-90
2021/01/13 08:52:10;;;;;;;16.73;2.42;;;9.80;99.90;;;;;;6184205;23;20446;-89
2021/01/13 08:54:39;;;;;;;15.88;1.95;;;9.80;99.90;;;;;;6210394;23;20009;-89
2021/01/13 08:57:07;;;;;;;33.15;4.18;;;9.90;99.90;;;;;;6183976;23;20465;-89
2021/01/13 08:59:39;;;;;;;15.95;3.75;;;9.90;99.90;;;;;;6183540;23;20008;-89
2021/01/13 09:02:25;;;;;;;13.88;4.10;;;9.90;99.90;;;;;;6210454;23;20011;-88
2021/01/13 09:04:52;;;;;;;9.35;1.25;;;9.90;99.90;;;;;;6210047;23;20088;-89
2021/01/13 09:07:26;;;;;;;0.05;0.05;;;10.00;99.90;;;;;;6184116;23;20015;-89
2021/01/13 09:10:06;;;;;;;0.20;0.20;;;10.00;99.90;;;;;;6210172;23;19996;-89
2021/01/13 09:12:35;;;;;;;2.05;1.95;;;10.00;99.90;;;;;;6182960;23;20039;-89
2021/01/13 09:15:09;;;;;;;0.00;0.00;;;10.00;99.90;;;;;;6183163;23;20362;-89
2021/01/13 09:17:40;;;;;;;0.00;0.00;;;9.90;99.90;;;;;;6183150;23;20016;-89
2021/01/13 09:20:11;;;;;;;0.10;0.10;;;9.90;99.90;;;;;;6210336;23;20005;-89
2021/01/13 09:22:44;;;;;;;0.10;0.10;;;9.90;99.90;;;;;;6209799;23;20016;-90
2021/01/13 09:25:22;;;;;;;0.10;0.10;;;10.10;99.90;;;;;;6183411;23;20012;-87
2021/01/13 09:28:01;;;;;;;0.10;0.10;;;10.10;99.90;;;;;;6209723;23;20024;-89
2021/01/13 09:30:38;;;;;;;0.10;0.10;;;10.10;99.90;;;;;;6209314;23;20032;-89
2021/01/13 09:33:20;;;;;;;0.90;0.80;;;10.20;99.90;;;;;;6183018;23;20010;-90
2021/01/13 09:36:00;;;;;;;0.10;0.10;;;10.20;99.90;;;;;;6209454;23;20328;-89
2021/01/13 09:38:30;;;;;;;0.10;0.10;;;10.20;99.90;;;;;;6183177;23;20013;-89
2021/01/13 09:40:59;;;;;;;0.00;0.00;;;10.20;99.90;;;;;;6182356;23;20009;-90
2021/01/13 09:43:46;;;;;;;4.07;1.55;;;10.30;99.90;;;;;;6182969;23;20409;-89
2021/01/13 09:46:21;;;;;;;4.75;1.75;;;10.30;99.90;;;;;;6183259;23;20004;-89
2021/01/13 09:49:01;;;;;;;0.15;0.15;;;10.20;99.90;;;;;;6209742;23;20011;-87
2021/01/13 09:51:28;;;;;;;0.10;0.10;;;10.20;99.90;;;;;;6183390;23;20394;-89
2021/01/13 09:53:56;;;;;;;0.05;0.05;;;10.20;99.90;;;;;;6209007;23;20005;-89
2021/01/13 09:56:23;;;;;;;18.15;3.92;;;10.30;99.90;;;;;;6182833;23;20524;-89
2021/01/13 09:58:52;;;;;;;0.10;0.10;;;10.30;99.90;;;;;;6182480;23;20013;-89
2021/01/13 10:01:24;;;;;;;0.40;0.40;;;10.30;99.90;;;;;;6182946;23;20338;-89
2021/01/13 10:03:55;;;;;;;24.58;2.13;;;10.30;99.90;;;;;;6195178;23;20024;-89
2021/01/13 10:06:27;;;;;;;8.27;1.95;;;10.30;99.90;;;;;;6208442;23;20085;-90
2021/01/13 10:08:57;;;;;;;0.30;0.30;;;10.30;99.90;;;;;;6207665;23;20001;-89
2021/01/13 10:11:27;;;;;;;0.65;0.65;;;10.30;99.90;;;;;;6208289;23;20078;-90
2021/01/13 10:13:58;;;;;;;0.00;0.00;;;10.40;99.90;;;;;;6209631;23;20001;-89
2021/01/13 10:16:24;;;;;;;0.22;0.22;;;12.00;99.90;;;;;;6208170;23;20009;-88
2021/01/13 10:18:54;;;;;;;0.88;0.32;;;12.30;99.90;;;;;;6207650;23;20852;-89
2021/01/13 10:21:20;;;;;;;0.10;0.10;;;12.40;99.90;;;;;;6207805;23;20012;-90
2021/01/13 10:23:47;;;;;;;0.10;0.10;;;12.50;99.90;;;;;;6209928;23;20338;-87
2021/01/13 10:26:13;;;;;;;0.10;0.10;;;12.60;99.90;;;;;;6208327;23;20012;-89
2021/01/13 10:28:40;;;;;;;0.10;0.10;;;12.70;99.90;;;;;;6208165;23;20032;-89
2021/01/13 10:31:08;;;;;;;0.10;0.10;;;12.80;99.90;;;;;;6207927;23;20278;-90
2021/01/13 10:33:48;;;;;;;1.00;0.80;;;12.80;99.90;;;;;;6209687;23;20004;-89
2021/01/13 10:36:33;;;;;;;2.33;1.45;;;12.80;99.90;;;;;;6208397;23;20035;-90
2021/01/13 10:39:21;;;;;;;0.03;0.03;;;12.80;99.90;;;;;;6209319;23;20061;-89
2021/01/13 10:41:49;;;;;;;0.10;0.10;;;12.80;99.90;;;;;;6209597;23;20004;-89
2021/01/13 10:44:17;;;;;;;0.10;0.10;;;12.60;99.90;;;;;;6209962;23;20004;-90
2021/01/13 10:46:48;;;;;;;0.10;0.10;;;12.60;99.90;;;;;;6211713;23;20510;-90
2021/01/13 10:49:24;;;;;;;0.10;0.10;;;12.70;99.90;;;;;;6209850;23;20005;-90
2021/01/13 10:51:56;;;;;;;0.10;0.10;;;12.70;99.90;;;;;;6211631;23;20080;-90
2021/01/13 10:54:24;;;;;;;0.43;0.43;;;12.60;99.90;;;;;;6209949;23;20105;-89
2021/01/13 10:57:10;;;;;;;4.78;3.03;;;12.60;99.90;;;;;;6210002;23;20008;-89
2021/01/13 10:59:38;;;;;;;0.68;0.68;;;12.60;99.90;;;;;;6211517;23;20008;-86
2021/01/13 11:02:05;;;;;;;0.43;0.43;;;12.70;99.90;;;;;;6211309;23;20001;-90
2021/01/13 11:04:31;;;;;;;12.60;2.88;;;12.70;99.90;;;;;;6209967;23;20029;-90
2021/01/13 11:07:02;;;;;;;0.10;0.10;;;12.70;99.90;;;;;;6211378;23;20051;-89
2021/01/13 11:09:29;;;;;;;0.38;0.35;;;12.60;99.90;;;;;;6209759;23;20513;-89
2021/01/13 11:11:56;;;;;;;0.13;0.13;;;12.50;99.90;;;;;;6209183;23;20009;-89
2021/01/13 11:14:40;;;;;;;0.88;0.80;;;12.40;99.90;;;;;;6209292;23;20008;-89
2021/01/13 11:17:16;;;;;;;0.10;0.10;;;12.60;99.90;;;;;;6209110;23;20091;-89
2021/01/13 11:19:45;;;;;;;0.10;0.10;;;12.50;99.90;;;;;;6211123;23;20004;-89
2021/01/13 11:22:11;;;;;;;0.10;0.10;;;12.40;99.90;;;;;;6210986;23;20573;-89
2021/01/13 11:24:43;;;;;;;0.10;0.10;;;12.40;99.90;;;;;;6209057;23;20005;-88
2021/01/13 11:27:14;;;;;;;0.10;0.10;;;12.50;99.90;;;;;;6208294;23;20480;-89
2021/01/13 11:29:42;;;;;;;0.10;0.10;;;12.50;99.90;;;;;;6210129;23;20113;-89
2021/01/13 11:32:30;;;;;;;0.10;0.10;;;12.60;99.90;;;;;;6208633;23;20015;-89
2021/01/13 11:34:56;;;;;;;0.25;0.25;;;12.70;99.90;;;;;;6207358;23;20433;-88
2021/01/13 11:37:51;;;;;;;0.10;0.10;;;12.60;99.90;;;;;;6208394;23;20008;-88
2021/01/13 11:40:22;;;;;;;0.10;0.10;;;12.60;99.90;;;;;;6064763;23;20010;-88
2021/01/13 11:43:21;;;;;;;0.10;0.10;;;12.60;99.90;;;;;;6064605;23;20089;-88
2021/01/13 11:46:05;;;;;;;0.10;0.10;;;12.70;99.90;;;;;;6088994;23;20006;-86
2021/01/13 11:48:50;;;;;;;0.10;0.10;;;12.70;99.90;;;;;;6064991;23;20068;-87
2021/01/13 11:51:17;;;;;;;0.10;0.10;;;12.50;99.90;;;;;;6064820;23;20026;-88
2021/01/13 11:53:46;;;;;;;0.00;0.00;;;12.60;99.90;;;;;;6064215;23;20066;-88
2021/01/13 11:56:12;;;;;;;0.10;0.10;;;12.60;99.90;;;;;;6089152;23;20030;-88
2021/01/13 11:58:47;;;;;;;0.00;0.00;;;12.60;99.90;;;;;;6088824;23;20400;-89
2021/01/13 12:01:13;;;;;;;0.10;0.10;;;12.70;99.90;;;;;;6064188;23;20014;-88
2021/01/13 12:03:39;;;;;;;0.00;0.00;;;12.60;99.90;;;;;;6064512;23;20018;-86
2021/01/13 12:06:09;;;;;;;0.10;0.10;;;12.70;99.90;;;;;;6086965;23;20065;-89
2021/01/13 12:08:36;;;;;;;0.10;0.10;;;12.70;99.90;;;;;;6064897;23;20015;-88
2021/01/13 12:11:02;;;;;;;0.03;0.03;;;12.70;99.90;;;;;;6063289;23;20010;-89
2021/01/13 12:13:30;;;;;;;0.10;0.10;;;12.80;99.90;;;;;;6063322;23;20011;-88
2021/01/13 12:16:01;;;;;;;0.08;0.08;;;12.80;99.90;;;;;;6088412;23;20014;-89
2021/01/13 12:18:35;;;;;;;0.10;0.10;;;12.70;99.90;;;;;;6209760;23;20079;-89
2021/01/13 12:21:09;;;;;;;0.10;0.10;;;12.90;99.90;;;;;;6210339;23;20009;-87
2021/01/13 12:23:39;;;;;;;0.10;0.10;;;12.90;99.90;;;;;;6209950;23;20008;-89
2021/01/13 12:26:30;;;;;;;0.10;0.10;;;12.80;99.90;;;;;;6210010;23;20055;-87
2021/01/13 12:29:02;;;;;;;0.20;0.20;;;12.90;99.90;;;;;;6207764;23;20328;-88
2021/01/13 12:31:40;;;;;;;0.00;0.00;;;13.50;99.90;;;;;;6207909;23;20498;-89
2021/01/13 12:34:21;;;;;;;0.10;0.10;;;13.50;99.90;;;;;;6208284;23;20023;-89
2021/01/13 12:36:53;;;;;;;0.00;0.00;;;13.20;99.90;;;;;;6208189;23;20028;-89
2021/01/13 12:39:26;;;;;;;0.20;0.20;;;13.30;99.90;;;;;;6209838;23;20028;-88
2021/01/13 12:41:54;;;;;;;0.10;0.10;;;13.20;99.90;;;;;;6207869;23;20043;-88
2021/01/13 12:44:21;;;;;;;0.10;0.10;;;13.20;99.90;;;;;;6209733;23;20000;-88
2021/01/13 12:46:51;;;;;;;0.10;0.10;;;13.30;99.90;;;;;;6206988;23;20005;-88
2021/01/13 12:49:18;;;;;;;0.20;0.20;;;13.10;99.90;;;;;;6209594;23;19997;-88
2021/01/13 12:51:50;;;;;;;0.10;0.10;;;13.30;99.90;;;;;;6207713;23;20008;-88
2021/01/13 12:54:16;;;;;;;0.03;0.03;;;13.30;99.90;;;;;;6209078;23;20009;-88
2021/01/13 12:56:41;;;;;;;0.10;0.10;;;13.10;99.90;;;;;;6206875;23;20091;-88
2021/01/13 12:59:07;;;;;;;0.10;0.10;;;13.00;99.90;;;;;;6207188;23;20011;-88
2021/01/13 13:01:40;;;;;;;0.00;0.00;;;12.80;99.90;;;;;;6209077;23;20004;-88
2021/01/13 13:04:06;;;;;;;0.10;0.10;;;12.90;99.90;;;;;;6208354;23;20040;-88
2021/01/13 13:06:34;;;;;;;0.10;0.10;;;13.10;99.90;;;;;;6208993;23;20001;-88
2021/01/13 13:09:05;;;;;;;0.10;0.10;;;13.30;99.90;;;;;;6182086;23;20392;-88
2021/01/13 13:11:31;;;;;;;0.10;0.10;;;13.40;99.90;;;;;;6209287;23;20009;-88
2021/01/13 13:13:58;;;;;;;0.10;0.10;;;13.40;99.90;;;;;;6181870;23;20004;-87
2021/01/13 13:16:24;;;;;;;;;;;13.60;99.90;;;;;;6182943;23;20020;-87
2021/01/13 13:18:54;;;;;;;0.10;0.10;;;13.70;99.90;;;;;;6181820;23;19904;-88
2021/01/13 13:21:23;;;;;;;0.10;0.10;;;13.60;99.90;;;;;;6179601;23;20009;-88
2021/01/13 13:23:52;;;;;;;0.13;0.13;;;13.80;99.90;;;;;;6156650;23;20039;-89